Time;durP1;ratioP1;P1;durP2;ratioP2;P2;SDS_P1;SDS_P2;PMS_P1;PMS_P2;Temp;Humidity;BMP_temperature;BMP_pressure;BME280_temperature;BME280_humidity;BME280_pressure;Samples;Min_cycle;Max_cycle;Signal;HPM_P1;HPM_P2
2023/11/06 00:02:14;;;;;;;1.37;0.57;;;;;;;;;;5035040;28;21026;-83
2023/11/06 00:04:39;;;;;;;2.60;0.95;;;;;;;;;;5034850;28;20985;-83
2023/11/06 00:07:05;;;;;;;1.70;0.70;;;;;;;;;;5032585;28;20442;-83
2023/11/06 00:09:31;;;;;;;1.25;0.60;;;;;;;;;;5035396;28;20397;-83
2023/11/06 00:11:58;;;;;;;1.90;0.80;;;;;;;;;;5018690;28;20432;-83
2023/11/06 00:14:24;;;;;;;2.38;0.50;;;;;;;;;;5015636;28;20381;-83
2023/11/06 00:16:51;;;;;;;2.97;0.60;;;;;;;;;;5016152;28;20458;-83
2023/11/06 00:19:17;;;;;;;2.20;0.88;;;;;;;;;;5015897;28;20866;-83
2023/11/06 00:21:43;;;;;;;2.00;0.60;;;;;;;;;;5016200;28;20391;-82
2023/11/06 00:24:09;;;;;;;1.00;0.43;;;;;;;;;;5015190;28;20389;-83
2023/11/06 00:26:35;;;;;;;2.40;0.63;;;;;;;;;;5014820;28;20400;-83
2023/11/06 00:29:04;;;;;;;1.02;0.50;;;;;;;;;;5015016;28;20703;-83
2023/11/06 00:31:38;;;;;;;1.38;0.50;;;;;;;;;;5015453;28;20424;-83
2023/11/06 00:34:04;;;;;;;2.00;0.60;;;;;;;;;;5016084;28;20377;-83
2023/11/06 00:36:30;;;;;;;1.60;0.60;;;;;;;;;;5015427;28;20464;-83
2023/11/06 00:38:56;;;;;;;1.00;0.40;;;;;;;;;;5016038;28;20784;-83
2023/11/06 00:41:22;;;;;;;2.80;0.60;;;;;;;;;;5015425;28;20393;-83
2023/11/06 00:43:48;;;;;;;1.48;0.40;;;;;;;;;;5014908;28;20449;-83
2023/11/06 00:46:14;;;;;;;2.30;0.70;;;;;;;;;;5015454;28;20385;-83
2023/11/06 00:48:40;;;;;;;1.20;0.47;;;;;;;;;;5014982;28;20396;-83
2023/11/06 00:51:06;;;;;;;1.17;0.47;;;;;;;;;;5013839;28;20519;-83
2023/11/06 00:53:32;;;;;;;2.40;0.47;;;;;;;;;;5014136;28;20400;-83
2023/11/06 00:55:58;;;;;;;1.65;0.40;;;;;;;;;;5013894;28;20373;-83
2023/11/06 00:58:24;;;;;;;0.98;0.40;;;;;;;;;;5015236;28;20442;-83
2023/11/06 01:00:50;;;;;;;2.60;0.50;;;;;;;;;;5013574;28;20478;-83
2023/11/06 01:03:16;;;;;;;1.92;0.50;;;;;;;;;;5013320;28;20439;-83
2023/11/06 01:05:42;;;;;;;1.55;0.43;;;;;;;;;;5013793;28;20384;-84
2023/11/06 01:08:08;;;;;;;2.37;0.63;;;;;;;;;;5013514;28;20869;-83
2023/11/06 01:10:34;;;;;;;2.47;0.60;;;;;;;;;;5013488;28;20408;-83
2023/11/06 01:13:00;;;;;;;0.80;0.35;;;;;;;;;;5014196;28;20396;-83
2023/11/06 01:15:27;;;;;;;1.30;0.40;;;;;;;;;;5014303;28;20377;-83
2023/11/06 01:17:53;;;;;;;0.55;0.40;;;;;;;;;;5013983;28;20439;-83
2023/11/06 01:20:20;;;;;;;1.13;0.40;;;;;;;;;;5013980;28;20389;-83
2023/11/06 01:22:47;;;;;;;0.77;0.40;;;;;;;;;;5013891;28;20389;-83
2023/11/06 01:25:14;;;;;;;0.73;0.40;;;;;;;;;;5013889;28;20432;-83
2023/11/06 01:27:40;;;;;;;0.98;0.40;;;;;;;;;;5014349;28;20418;-84
2023/11/06 01:30:07;;;;;;;0.63;0.30;;;;;;;;;;5013941;28;20788;-84
2023/11/06 01:32:33;;;;;;;1.90;0.60;;;;;;;;;;5014217;28;20385;-83
2023/11/06 01:34:59;;;;;;;1.25;0.50;;;;;;;;;;5015313;28;21185;-83
2023/11/06 01:37:29;;;;;;;1.13;0.70;;;;;;;;;;5013518;28;20508;-84
2023/11/06 01:39:55;;;;;;;1.30;0.70;;;;;;;;;;5014252;28;20726;-83
2023/11/06 01:42:21;;;;;;;1.70;0.80;;;;;;;;;;5014393;28;20385;-83
2023/11/06 01:44:47;;;;;;;1.73;0.70;;;;;;;;;;5013875;28;20381;-83
2023/11/06 01:47:14;;;;;;;1.33;0.82;;;;;;;;;;5014232;28;20867;-83
2023/11/06 01:49:41;;;;;;;1.25;0.70;;;;;;;;;;5013693;28;20385;-83
2023/11/06 01:52:08;;;;;;;1.27;0.65;;;;;;;;;;5014140;28;20972;-83
2023/11/06 01:54:34;;;;;;;1.00;0.52;;;;;;;;;;5014923;28;20447;-83
2023/11/06 01:57:01;;;;;;;0.80;0.57;;;;;;;;;;5013387;28;20406;-83
2023/11/06 01:59:26;;;;;;;2.00;0.90;;;;;;;;;;5017551;28;20714;-83
2023/11/06 02:01:56;;;;;;;3.17;1.20;;;;;;;;;;5032453;28;20391;-83
2023/11/06 02:04:23;;;;;;;1.98;1.10;;;;;;;;;;5020001;28;20377;-83
2023/11/06 02:06:49;;;;;;;1.88;1.23;;;;;;;;;;5013829;28;20412;-83
2023/11/06 02:09:16;;;;;;;2.63;1.30;;;;;;;;;;5013877;28;20384;-83
2023/11/06 02:11:43;;;;;;;1.33;0.90;;;;;;;;;;5014194;28;20511;-83
2023/11/06 02:14:12;;;;;;;1.48;0.80;;;;;;;;;;5014981;28;20385;-84
2023/11/06 02:16:38;;;;;;;2.20;0.90;;;;;;;;;;5014765;28;20777;-83
2023/11/06 02:19:05;;;;;;;1.58;0.65;;;;;;;;;;5014434;28;20391;-84
2023/11/06 02:21:32;;;;;;;1.00;0.50;;;;;;;;;;5015082;28;20417;-84
2023/11/06 02:23:58;;;;;;;0.98;0.57;;;;;;;;;;5014202;28;20866;-84
2023/11/06 02:26:24;;;;;;;1.50;0.60;;;;;;;;;;5015136;28;20424;-84
2023/11/06 02:28:51;;;;;;;1.20;0.50;;;;;;;;;;5015030;28;20415;-84
2023/11/06 02:31:17;;;;;;;1.88;0.57;;;;;;;;;;5015068;28;20886;-84
2023/11/06 02:33:43;;;;;;;0.80;0.50;;;;;;;;;;5014600;28;20472;-84
2023/11/06 02:36:10;;;;;;;1.20;0.40;;;;;;;;;;5019262;28;20404;-84
2023/11/06 02:38:36;;;;;;;1.98;0.47;;;;;;;;;;5025238;28;20865;-84
2023/11/06 02:41:03;;;;;;;1.00;0.50;;;;;;;;;;5015416;28;20693;-84
2023/11/06 02:43:29;;;;;;;0.80;0.50;;;;;;;;;;5012589;28;20388;-84
2023/11/06 02:45:55;;;;;;;1.38;0.60;;;;;;;;;;5011744;28;20381;-83
2023/11/06 02:48:22;;;;;;;1.33;0.70;;;;;;;;;;5011366;28;20910;-84
2023/11/06 02:50:49;;;;;;;0.95;0.38;;;;;;;;;;5011247;28;20825;-82
2023/11/06 02:53:15;;;;;;;1.70;0.70;;;;;;;;;;5011336;28;20389;-82
2023/11/06 02:55:41;;;;;;;1.20;0.60;;;;;;;;;;5011531;28;20399;-82
2023/11/06 02:58:07;;;;;;;1.15;0.60;;;;;;;;;;4993859;28;20404;-84
2023/11/06 03:00:33;;;;;;;1.08;0.70;;;;;;;;;;5011874;28;20392;-83
2023/11/06 03:02:59;;;;;;;1.27;0.68;;;;;;;;;;5011835;28;20396;-84
2023/11/06 03:05:25;;;;;;;0.68;0.68;;;;;;;;;;5013457;28;20735;-84
2023/11/06 03:07:51;;;;;;;1.42;0.70;;;;;;;;;;5032998;28;20915;-84
2023/11/06 03:10:17;;;;;;;0.50;0.40;;;;;;;;;;5017818;28;20473;-84
2023/11/06 03:12:43;;;;;;;1.00;0.43;;;;;;;;;;4996162;28;20488;-83
2023/11/06 03:15:12;;;;;;;0.65;0.45;;;;;;;;;;5014323;28;20421;-84
2023/11/06 03:17:38;;;;;;;1.47;0.50;;;;;;;;;;5014730;28;20442;-84
2023/11/06 03:20:10;;;;;;;1.65;0.50;;;;;;;;;;5014879;28;20393;-84
2023/11/06 03:22:39;;;;;;;1.30;0.60;;;;;;;;;;5014985;28;20392;-84
2023/11/06 03:25:06;;;;;;;0.70;0.50;;;;;;;;;;5015261;28;20392;-84
2023/11/06 03:27:33;;;;;;;1.67;0.50;;;;;;;;;;5015456;28;20397;-84
2023/11/06 03:29:59;;;;;;;1.90;0.52;;;;;;;;;;5015137;28;20381;-84
2023/11/06 03:32:25;;;;;;;1.65;0.68;;;;;;;;;;5016084;28;20748;-84
2023/11/06 03:34:51;;;;;;;2.10;0.65;;;;;;;;;;5015710;28;20397;-84
2023/11/06 03:37:17;;;;;;;1.08;0.80;;;;;;;;;;5015559;28;20388;-84
2023/11/06 03:39:43;;;;;;;1.50;0.80;;;;;;;;;;5015884;28;20380;-84
2023/11/06 03:42:09;;;;;;;1.63;0.80;;;;;;;;;;5027566;28;20477;-84
2023/11/06 03:44:36;;;;;;;2.70;1.10;;;;;;;;;;5035407;28;20849;-82
2023/11/06 03:47:03;;;;;;;2.05;1.20;;;;;;;;;;5034845;28;20379;-84
2023/11/06 03:49:29;;;;;;;2.53;1.00;;;;;;;;;;5035498;28;20387;-84
2023/11/06 03:51:55;;;;;;;2.33;1.50;;;;;;;;;;5035110;28;20506;-84
2023/11/06 03:54:21;;;;;;;3.00;1.40;;;;;;;;;;5035627;28;20387;-84
2023/11/06 03:56:47;;;;;;;1.92;1.20;;;;;;;;;;5036457;28;20533;-84
2023/11/06 03:59:13;;;;;;;1.92;1.38;;;;;;;;;;5034641;28;20694;-84
2023/11/06 04:01:39;;;;;;;1.67;1.42;;;;;;;;;;5035794;28;20386;-84
2023/11/06 04:04:05;;;;;;;2.35;1.10;;;;;;;;;;5036348;28;20803;-84
2023/11/06 04:06:31;;;;;;;2.17;1.25;;;;;;;;;;5036194;28;20376;-82
2023/11/06 04:08:57;;;;;;;1.17;1.00;;;;;;;;;;5032482;28;20475;-82
2023/11/06 04:11:23;;;;;;;2.88;1.25;;;;;;;;;;5035395;28;20421;-82
2023/11/06 04:13:50;;;;;;;1.80;0.80;;;;;;;;;;5035809;28;20853;-82
2023/11/06 04:16:16;;;;;;;2.10;0.70;;;;;;;;;;5035235;28;20905;-82
2023/11/06 04:18:42;;;;;;;1.75;1.00;;;;;;;;;;5035556;28;20375;-81
2023/11/06 04:21:08;;;;;;;1.80;1.00;;;;;;;;;;5034229;28;20442;-83
2023/11/06 04:23:34;;;;;;;2.77;1.10;;;;;;;;;;5035594;28;20387;-84
2023/11/06 04:26:00;;;;;;;1.80;0.90;;;;;;;;;;5036388;28;20390;-84
2023/11/06 04:28:27;;;;;;;1.50;0.98;;;;;;;;;;5036545;28;20865;-82
2023/11/06 04:30:53;;;;;;;1.13;0.90;;;;;;;;;;5035692;28;20865;-82
2023/11/06 04:33:19;;;;;;;1.27;0.80;;;;;;;;;;5034480;28;20494;-82
2023/11/06 04:35:45;;;;;;;0.88;0.70;;;;;;;;;;5034624;28;20466;-82
2023/11/06 04:38:11;;;;;;;0.52;0.47;;;;;;;;;;5034614;28;20422;-82
2023/11/06 04:40:37;;;;;;;1.58;0.50;;;;;;;;;;5034207;28;20395;-82
2023/11/06 04:43:03;;;;;;;1.00;0.60;;;;;;;;;;5036132;28;20423;-82
2023/11/06 04:45:29;;;;;;;1.60;0.60;;;;;;;;;;5035784;28;20526;-82
2023/11/06 04:47:55;;;;;;;1.08;0.60;;;;;;;;;;5036866;28;20398;-82
2023/11/06 04:50:21;;;;;;;1.20;0.47;;;;;;;;;;5035860;28;20418;-82
2023/11/06 04:52:47;;;;;;;1.05;0.50;;;;;;;;;;5034147;28;20403;-82
2023/11/06 04:55:13;;;;;;;1.88;0.63;;;;;;;;;;5034974;28;20390;-82
2023/11/06 04:57:39;;;;;;;1.30;0.60;;;;;;;;;;5036147;28;20387;-82
2023/11/06 05:00:06;;;;;;;0.80;0.50;;;;;;;;;;5035727;28;20394;-82
2023/11/06 05:02:33;;;;;;;1.20;0.53;;;;;;;;;;5036301;28;20473;-82
2023/11/06 05:04:59;;;;;;;0.90;0.55;;;;;;;;;;5035437;28;20410;-82
2023/11/06 05:07:25;;;;;;;1.63;0.50;;;;;;;;;;5035696;28;20845;-82
2023/11/06 05:09:51;;;;;;;1.33;0.60;;;;;;;;;;5032357;28;20389;-82
2023/11/06 05:12:17;;;;;;;1.25;0.60;;;;;;;;;;5015869;28;20782;-82
2023/11/06 05:14:43;;;;;;;1.98;0.60;;;;;;;;;;5015671;28;20384;-82
2023/11/06 05:17:10;;;;;;;0.93;0.60;;;;;;;;;;5015907;28;20417;-82
2023/11/06 05:19:41;;;;;;;1.08;0.50;;;;;;;;;;5016487;28;20384;-82
2023/11/06 05:22:07;;;;;;;2.45;0.70;;;;;;;;;;5016776;28;20902;-82
2023/11/06 05:24:33;;;;;;;0.70;0.40;;;;;;;;;;5016195;28;20458;-82
2023/11/06 05:27:00;;;;;;;1.67;0.70;;;;;;;;;;5016400;28;20503;-82
2023/11/06 05:29:26;;;;;;;1.08;0.50;;;;;;;;;;5016969;28;20400;-81
2023/11/06 05:31:52;;;;;;;1.83;0.50;;;;;;;;;;5016455;28;20882;-81
2023/11/06 05:34:18;;;;;;;1.05;0.50;;;;;;;;;;5019525;28;20392;-81
2023/11/06 05:36:44;;;;;;;2.53;0.50;;;;;;;;;;5017156;28;20787;-81
2023/11/06 05:39:11;;;;;;;1.65;0.50;;;;;;;;;;5016303;28;20408;-81
2023/11/06 05:41:37;;;;;;;2.10;0.57;;;;;;;;;;4999096;28;20874;-81
2023/11/06 05:44:03;;;;;;;2.40;0.80;;;;;;;;;;5017080;28;20456;-81
2023/11/06 05:46:29;;;;;;;0.95;0.52;;;;;;;;;;5017480;28;20396;-81
2023/11/06 05:48:55;;;;;;;1.10;0.80;;;;;;;;;;5016966;28;20400;-81
2023/11/06 05:51:22;;;;;;;1.45;0.60;;;;;;;;;;5015986;28;20492;-81
2023/11/06 05:53:48;;;;;;;1.77;0.73;;;;;;;;;;5018199;28;20728;-81
2023/11/06 05:56:14;;;;;;;1.35;0.70;;;;;;;;;;5033417;28;20394;-82
2023/11/06 05:58:40;;;;;;;2.30;0.75;;;;;;;;;;5033785;28;20387;-82
2023/11/06 06:01:06;;;;;;;1.37;0.80;;;;;;;;;;5033809;28;20474;-81
2023/11/06 06:03:32;;;;;;;2.40;0.80;;;;;;;;;;5033240;28;20724;-81
2023/11/06 06:05:58;;;;;;;1.23;0.55;;;;;;;;;;5032960;28;20387;-82
2023/11/06 06:08:24;;;;;;;1.63;0.65;;;;;;;;;;5010206;28;20403;-81
2023/11/06 06:10:50;;;;;;;1.27;0.68;;;;;;;;;;5032788;28;20836;-81
2023/11/06 06:13:16;;;;;;;1.47;0.60;;;;;;;;;;5033087;28;20383;-81
2023/11/06 06:15:42;;;;;;;2.10;0.70;;;;;;;;;;5019519;28;20385;-81
2023/11/06 06:18:07;;;;;;;2.75;0.82;;;;;;;;;;5013958;28;20396;-81
2023/11/06 06:20:33;;;;;;;2.37;1.00;;;;;;;;;;5032544;28;20395;-82
2023/11/06 06:22:59;;;;;;;2.08;0.55;;;;;;;;;;5033476;28;20403;-81
2023/11/06 06:25:25;;;;;;;2.72;0.90;;;;;;;;;;5034491;28;20453;-82
2023/11/06 06:27:51;;;;;;;2.10;0.80;;;;;;;;;;5034810;28;20391;-82
2023/11/06 06:30:17;;;;;;;2.47;0.70;;;;;;;;;;5034456;28;20910;-82
2023/11/06 06:32:43;;;;;;;1.00;0.50;;;;;;;;;;5034466;28;20395;-82
2023/11/06 06:35:12;;;;;;;2.47;0.45;;;;;;;;;;5034313;28;20383;-82
2023/11/06 06:37:38;;;;;;;1.70;0.50;;;;;;;;;;5034415;28;20845;-81
2023/11/06 06:40:08;;;;;;;1.42;0.50;;;;;;;;;;5033627;28;20383;-81
2023/11/06 06:42:34;;;;;;;2.55;0.80;;;;;;;;;;5036239;28;20441;-81
2023/11/06 06:45:01;;;;;;;2.97;0.80;;;;;;;;;;5038231;28;20418;-81
2023/11/06 06:47:27;;;;;;;2.15;0.70;;;;;;;;;;5038295;28;20482;-81
2023/11/06 06:49:56;;;;;;;2.17;0.70;;;;;;;;;;5037499;28;20488;-81
2023/11/06 06:52:22;;;;;;;0.90;0.50;;;;;;;;;;5037613;28;20430;-81
2023/11/06 06:54:48;;;;;;;4.55;0.80;;;;;;;;;;5037731;28;20376;-82
2023/11/06 06:57:14;;;;;;;1.77;0.70;;;;;;;;;;5037043;28;20462;-81
2023/11/06 06:59:40;;;;;;;1.80;0.70;;;;;;;;;;5036505;28;20379;-82
2023/11/06 07:02:06;;;;;;;1.13;0.77;;;;;;;;;;5037587;28;20414;-81
2023/11/06 07:04:33;;;;;;;3.00;1.10;;;;;;;;;;5037364;28;20821;-81
2023/11/06 07:06:59;;;;;;;2.13;1.20;;;;;;;;;;5036832;28;20383;-81
2023/11/06 07:09:31;;;;;;;1.98;1.55;;;;;;;;;;5037814;28;20389;-81
2023/11/06 07:11:57;;;;;;;3.58;1.33;;;;;;;;;;5036305;28;20959;-81
2023/11/06 07:14:24;;;;;;;1.43;1.10;;;;;;;;;;5037090;28;20387;-81
2023/11/06 07:16:52;;;;;;;3.17;1.10;;;;;;;;;;5036777;28;20402;-82
2023/11/06 07:19:18;;;;;;;2.20;0.90;;;;;;;;;;5037376;28;20383;-81
2023/11/06 07:21:44;;;;;;;1.40;0.80;;;;;;;;;;5037460;28;20441;-81
2023/11/06 07:24:10;;;;;;;1.77;1.10;;;;;;;;;;5037056;28;20710;-81
2023/11/06 07:26:36;;;;;;;1.90;0.88;;;;;;;;;;5037356;28;20398;-81
2023/11/06 07:29:02;;;;;;;2.10;0.82;;;;;;;;;;5037343;28;20531;-81
2023/11/06 07:31:29;;;;;;;4.88;1.20;;;;;;;;;;5037536;28;20406;-81
2023/11/06 07:33:55;;;;;;;3.38;1.05;;;;;;;;;;5034141;28;20431;-81
2023/11/06 07:36:21;;;;;;;5.05;1.48;;;;;;;;;;5037127;28;20391;-81
2023/11/06 07:38:46;;;;;;;1.70;1.08;;;;;;;;;;5036617;28;20377;-81
2023/11/06 07:41:12;;;;;;;3.33;1.50;;;;;;;;;;5036943;28;20401;-81
2023/11/06 07:43:39;;;;;;;5.40;2.45;;;;;;;;;;5036820;28;20387;-81
2023/11/06 07:46:05;;;;;;;3.03;1.52;;;;;;;;;;5017537;28;20804;-81
2023/11/06 07:48:31;;;;;;;3.75;1.40;;;;;;;;;;5034177;28;20391;-81
2023/11/06 07:50:57;;;;;;;3.92;1.25;;;;;;;;;;5035912;28;20411;-81
2023/11/06 07:53:23;;;;;;;5.50;1.15;;;;;;;;;;5035144;28;20794;-81
2023/11/06 07:55:49;;;;;;;2.38;0.90;;;;;;;;;;5035526;28;20415;-81
2023/11/06 07:58:15;;;;;;;2.13;1.00;;;;;;;;;;5035330;28;20398;-81
2023/11/06 08:00:41;;;;;;;2.85;1.10;;;;;;;;;;5035913;28;20391;-82
2023/11/06 08:03:08;;;;;;;2.20;0.80;;;;;;;;;;5035678;28;20462;-82
2023/11/06 08:05:36;;;;;;;3.03;0.90;;;;;;;;;;5034866;28;20394;-82
2023/11/06 08:08:03;;;;;;;6.05;1.45;;;;;;;;;;5035425;28;20387;-82
2023/11/06 08:10:31;;;;;;;2.50;0.93;;;;;;;;;;5034984;28;20407;-82
2023/11/06 08:12:59;;;;;;;4.82;1.20;;;;;;;;;;5035541;28;20402;-81
2023/11/06 08:15:25;;;;;;;3.40;1.10;;;;;;;;;;5035229;28;20419;-82
2023/11/06 08:17:52;;;;;;;1.83;0.90;;;;;;;;;;5035528;28;20419;-82
2023/11/06 08:20:18;;;;;;;2.58;0.85;;;;;;;;;;5035079;28;20385;-82
2023/11/06 08:22:44;;;;;;;2.17;0.80;;;;;;;;;;5036207;28;20411;-82
2023/11/06 08:25:14;;;;;;;2.65;0.80;;;;;;;;;;5036561;28;20394;-81
2023/11/06 08:27:40;;;;;;;3.53;0.80;;;;;;;;;;5016423;28;20577;-82
2023/11/06 08:30:09;;;;;;;3.38;1.20;;;;;;;;;;5015749;28;20862;-81
2023/11/06 08:32:35;;;;;;;3.58;0.90;;;;;;;;;;5013714;28;20763;-81
2023/11/06 08:35:04;;;;;;;2.30;0.82;;;;;;;;;;5015477;28;20704;-81
2023/11/06 08:37:31;;;;;;;4.25;1.23;;;;;;;;;;5015271;28;20377;-81
2023/11/06 08:39:57;;;;;;;3.38;1.05;;;;;;;;;;5015248;28;20381;-81
2023/11/06 08:42:23;;;;;;;4.18;1.30;;;;;;;;;;5015249;28;20439;-81
2023/11/06 08:44:49;;;;;;;2.37;1.20;;;;;;;;;;5027706;28;20454;-81
2023/11/06 08:47:15;;;;;;;2.28;1.20;;;;;;;;;;5035453;28;20387;-81
2023/11/06 08:49:41;;;;;;;2.33;1.50;;;;;;;;;;5035490;28;20470;-81
2023/11/06 08:52:08;;;;;;;1.48;1.00;;;;;;;;;;5035088;28;20455;-81
2023/11/06 08:54:35;;;;;;;4.15;1.15;;;;;;;;;;5035490;28;20386;-82
2023/11/06 08:57:02;;;;;;;5.00;1.40;;;;;;;;;;5036420;28;20387;-81
2023/11/06 08:59:28;;;;;;;7.72;2.67;;;;;;;;;;5036757;28;20394;-81
2023/11/06 09:01:54;;;;;;;5.70;2.40;;;;;;;;;;5035779;28;20771;-82
2023/11/06 09:04:20;;;;;;;4.18;2.03;;;;;;;;;;5035898;28;20405;-81
2023/11/06 09:06:49;;;;;;;3.38;1.42;;;;;;;;;;5036160;28;20749;-81
2023/11/06 09:09:15;;;;;;;3.17;1.10;;;;;;;;;;5035908;28;20393;-82
2023/11/06 09:11:41;;;;;;;2.10;1.17;;;;;;;;;;5037420;28;20411;-82
2023/11/06 09:14:10;;;;;;;4.03;1.40;;;;;;;;;;5040610;28;20397;-82
2023/11/06 09:16:37;;;;;;;1.40;1.00;;;;;;;;;;5036408;28;20379;-82
2023/11/06 09:19:03;;;;;;;3.97;1.00;;;;;;;;;;5033648;28;20394;-82
2023/11/06 09:21:29;;;;;;;2.13;0.90;;;;;;;;;;5033662;28;20434;-81
2023/11/06 09:23:55;;;;;;;2.95;0.85;;;;;;;;;;5033348;28;20390;-81
2023/11/06 09:26:21;;;;;;;1.33;0.80;;;;;;;;;;5033703;28;20391;-81
2023/11/06 09:28:48;;;;;;;2.50;0.90;;;;;;;;;;5033315;28;20388;-81
2023/11/06 09:31:19;;;;;;;5.78;1.10;;;;;;;;;;5031572;28;20507;-81
2023/11/06 09:33:45;;;;;;;2.58;0.80;;;;;;;;;;5030508;28;20710;-81
2023/11/06 09:36:11;;;;;;;2.22;0.95;;;;;;;;;;5031849;28;20417;-81
2023/11/06 09:38:37;;;;;;;3.03;0.98;;;;;;;;;;5032474;28;20387;-81
2023/11/06 09:41:03;;;;;;;1.70;0.80;;;;;;;;;;5034215;28;20840;-81
2023/11/06 09:43:29;;;;;;;1.30;1.00;;;;;;;;;;5032590;28;20398;-81
2023/11/06 09:45:57;;;;;;;2.08;1.00;;;;;;;;;;5034455;28;20395;-81
2023/11/06 09:48:28;;;;;;;2.53;1.23;;;;;;;;;;5034089;28;20407;-80
2023/11/06 09:50:58;;;;;;;2.70;1.15;;;;;;;;;;5034087;28;20426;-81
2023/11/06 09:53:24;;;;;;;3.60;1.10;;;;;;;;;;5033634;28;20415;-81
2023/11/06 09:55:51;;;;;;;1.95;0.88;;;;;;;;;;5018861;28;20381;-81
2023/11/06 09:58:18;;;;;;;1.75;1.02;;;;;;;;;;5014835;28;20397;-81
2023/11/06 10:00:46;;;;;;;1.87;0.70;;;;;;;;;;5014521;28;20413;-81
2023/11/06 10:03:12;;;;;;;2.05;0.80;;;;;;;;;;5014314;28;20438;-81
2023/11/06 10:05:38;;;;;;;1.88;0.70;;;;;;;;;;5014220;28;20614;-81
2023/11/06 10:08:06;;;;;;;1.95;0.70;;;;;;;;;;5014447;28;20384;-80
2023/11/06 10:10:34;;;;;;;1.00;0.50;;;;;;;;;;5014338;28;20771;-80
2023/11/06 10:13:04;;;;;;;0.87;0.60;;;;;;;;;;5014526;28;20397;-80
2023/11/06 10:15:33;;;;;;;1.55;0.70;;;;;;;;;;5014746;28;20456;-81
2023/11/06 10:18:21;;;;;;;2.15;0.60;;;;;;;;;;5018063;28;20387;-80
2023/11/06 10:20:47;;;;;;;1.92;0.90;;;;;;;;;;5034749;28;20741;-81
2023/11/06 10:23:22;;;;;;;1.77;0.80;;;;;;;;;;5034446;28;20445;-81
2023/11/06 10:25:48;;;;;;;2.15;0.80;;;;;;;;;;5035665;28;20391;-81
2023/11/06 10:28:18;;;;;;;1.52;0.70;;;;;;;;;;5034875;28;20399;-81
2023/11/06 10:30:48;;;;;;;2.67;0.88;;;;;;;;;;5034710;28;20411;-81
2023/11/06 10:33:15;;;;;;;1.75;0.68;;;;;;;;;;5035184;28;20419;-81
2023/11/06 10:35:41;;;;;;;1.90;0.85;;;;;;;;;;5035953;28;20438;-81
2023/11/06 10:38:08;;;;;;;1.65;0.80;;;;;;;;;;5035843;28;20386;-81
2023/11/06 10:40:35;;;;;;;2.00;1.08;;;;;;;;;;5035947;28;20474;-81
2023/11/06 10:43:04;;;;;;;1.20;0.60;;;;;;;;;;5034728;28;20382;-81
2023/11/06 10:45:33;;;;;;;1.63;0.60;;;;;;;;;;5035694;28;21015;-81
2023/11/06 10:48:04;;;;;;;1.65;0.70;;;;;;;;;;5036648;28;20473;-81
2023/11/06 10:50:31;;;;;;;3.20;1.02;;;;;;;;;;5036413;28;20784;-81
2023/11/06 10:52:59;;;;;;;1.90;0.50;;;;;;;;;;5036282;28;20403;-81
2023/11/06 10:55:26;;;;;;;1.67;0.70;;;;;;;;;;5036421;28;20470;-81
2023/11/06 10:57:53;;;;;;;1.30;0.50;;;;;;;;;;5018237;28;20405;-81
2023/11/06 11:00:23;;;;;;;1.90;0.63;;;;;;;;;;5036179;28;20845;-81
2023/11/06 11:02:49;;;;;;;1.48;0.63;;;;;;;;;;5036984;28;20418;-81
2023/11/06 11:05:18;;;;;;;4.10;0.80;;;;;;;;;;5037155;28;20387;-81
2023/11/06 11:07:46;;;;;;;2.00;0.70;;;;;;;;;;5036778;28;20426;-81
2023/11/06 11:10:15;;;;;;;1.02;0.60;;;;;;;;;;5035717;28;20379;-81
2023/11/06 11:12:42;;;;;;;1.30;0.50;;;;;;;;;;5017352;28;20542;-81
2023/11/06 11:15:09;;;;;;;1.65;0.40;;;;;;;;;;5036129;28;20394;-81
2023/11/06 11:17:36;;;;;;;1.50;0.50;;;;;;;;;;5034448;28;20390;-81
2023/11/06 11:20:07;;;;;;;1.10;0.40;;;;;;;;;;5036020;28;20384;-81
2023/11/06 11:22:56;;;;;;;1.50;0.55;;;;;;;;;;5035543;28;20717;-81
2023/11/06 11:25:41;;;;;;;1.25;0.73;;;;;;;;;;5029967;28;20393;-81
2023/11/06 11:28:16;;;;;;;1.40;0.50;;;;;;;;;;5035741;28;20371;-81
2023/11/06 11:30:43;;;;;;;0.75;0.35;;;;;;;;;;5038063;28;20414;-81
2023/11/06 11:33:09;;;;;;;1.23;0.50;;;;;;;;;;5035393;28;20426;-81
2023/11/06 11:35:36;;;;;;;1.80;0.60;;;;;;;;;;5038380;28;20472;-81
2023/11/06 11:38:03;;;;;;;0.80;0.50;;;;;;;;;;5037687;28;20383;-80
2023/11/06 11:40:41;;;;;;;2.20;0.70;;;;;;;;;;5038727;28;20398;-81
2023/11/06 11:43:25;;;;;;;1.58;0.82;;;;;;;;;;5038008;28;20387;-81
2023/11/06 11:45:51;;;;;;;0.90;0.43;;;;;;;;;;5038596;28;20855;-81
2023/11/06 11:48:21;;;;;;;2.85;0.60;;;;;;;;;;5037785;28;20387;-81
2023/11/06 11:50:47;;;;;;;1.25;0.50;;;;;;;;;;5037511;28;20418;-81
2023/11/06 11:53:36;;;;;;;0.95;0.40;;;;;;;;;;5020068;28;20399;-81
2023/11/06 11:56:02;;;;;;;0.75;0.40;;;;;;;;;;5037622;28;20398;-81
2023/11/06 11:58:28;;;;;;;1.00;0.30;;;;;;;;;;5037686;28;20395;-81
2023/11/06 12:00:58;;;;;;;2.20;0.43;;;;;;;;;;5037334;28;20391;-80
2023/11/06 12:03:25;;;;;;;2.10;0.50;;;;;;;;;;5037747;28;20379;-80
2023/11/06 12:05:56;;;;;;;1.33;0.70;;;;;;;;;;5038121;28;20403;-81
2023/11/06 12:08:26;;;;;;;0.82;0.50;;;;;;;;;;5033957;28;20399;-81
2023/11/06 12:10:53;;;;;;;0.68;0.50;;;;;;;;;;5017436;28;20481;-81
2023/11/06 12:13:23;;;;;;;0.47;0.30;;;;;;;;;;5016741;28;20388;-81
2023/11/06 12:15:49;;;;;;;1.27;0.57;;;;;;;;;;5017404;28;20392;-81
2023/11/06 12:18:16;;;;;;;0.90;0.45;;;;;;;;;;5017382;28;20384;-81
2023/11/06 12:20:43;;;;;;;0.55;0.40;;;;;;;;;;5027623;28;20391;-80
2023/11/06 12:23:09;;;;;;;0.97;0.20;;;;;;;;;;5037041;28;20518;-80
2023/11/06 12:25:37;;;;;;;1.15;0.20;;;;;;;;;;5036917;28;20391;-81
2023/11/06 12:28:04;;;;;;;0.40;0.20;;;;;;;;;;5036991;28;20384;-80
2023/11/06 12:30:30;;;;;;;0.70;0.20;;;;;;;;;;5036691;28;20402;-80
2023/11/06 12:32:56;;;;;;;0.53;0.20;;;;;;;;;;5039265;28;20391;-80
2023/11/06 12:35:22;;;;;;;1.52;0.40;;;;;;;;;;5040242;28;20383;-80
2023/11/06 12:37:49;;;;;;;0.30;0.30;;;;;;;;;;5037719;28;20380;-80
2023/11/06 12:40:19;;;;;;;2.88;0.40;;;;;;;;;;5035645;28;20399;-80
2023/11/06 12:42:45;;;;;;;1.10;0.30;;;;;;;;;;5035398;28;20907;-80
2023/11/06 12:45:30;;;;;;;0.95;0.30;;;;;;;;;;5035057;28;20841;-80
2023/11/06 12:47:56;;;;;;;0.70;0.30;;;;;;;;;;5035138;28;20706;-80
2023/11/06 12:50:23;;;;;;;0.43;0.35;;;;;;;;;;5034711;28;20405;-80
2023/11/06 12:52:49;;;;;;;1.33;0.35;;;;;;;;;;5035176;28;20387;-80
2023/11/06 12:55:15;;;;;;;1.27;0.52;;;;;;;;;;5035216;28;20877;-80
2023/11/06 12:57:41;;;;;;;1.40;0.50;;;;;;;;;;5035288;28;20379;-80
2023/11/06 13:00:15;;;;;;;1.60;0.40;;;;;;;;;;5034157;28;20407;-81
2023/11/06 13:02:41;;;;;;;0.85;0.30;;;;;;;;;;5033975;28;21712;-80
2023/11/06 13:05:07;;;;;;;0.45;0.30;;;;;;;;;;5034902;28;20376;-80
2023/11/06 13:07:34;;;;;;;0.47;0.15;;;;;;;;;;5034708;28;20383;-81
2023/11/06 13:10:00;;;;;;;0.73;0.35;;;;;;;;;;5035782;28;20402;-80
2023/11/06 13:12:26;;;;;;;1.13;0.40;;;;;;;;;;5034935;28;20509;-81
2023/11/06 13:14:53;;;;;;;1.17;0.50;;;;;;;;;;5036580;28;20380;-81
2023/11/06 13:17:20;;;;;;;0.50;0.20;;;;;;;;;;5036170;28;20390;-81
2023/11/06 13:19:48;;;;;;;0.38;0.22;;;;;;;;;;5036167;28;20394;-81
2023/11/06 13:22:15;;;;;;;1.30;0.30;;;;;;;;;;5036342;28;20385;-81
2023/11/06 13:24:42;;;;;;;1.17;0.50;;;;;;;;;;5037076;28;20384;-81
2023/11/06 13:27:08;;;;;;;2.25;0.40;;;;;;;;;;5036451;28;20415;-80
2023/11/06 13:29:35;;;;;;;2.10;0.30;;;;;;;;;;5036434;28;20391;-81
2023/11/06 13:32:01;;;;;;;0.95;0.40;;;;;;;;;;5036436;28;20758;-81
2023/11/06 13:34:27;;;;;;;0.85;0.40;;;;;;;;;;5036394;28;20387;-81
2023/11/06 13:36:56;;;;;;;1.67;0.73;;;;;;;;;;5036472;28;20394;-81
2023/11/06 13:39:24;;;;;;;0.88;0.52;;;;;;;;;;5021801;28;20432;-80
2023/11/06 13:41:54;;;;;;;3.27;0.90;;;;;;;;;;5015844;28;20427;-81
2023/11/06 13:44:21;;;;;;;1.20;0.35;;;;;;;;;;4998542;28;20405;-80
2023/11/06 13:46:48;;;;;;;1.27;0.32;;;;;;;;;;5015982;28;20396;-80
2023/11/06 13:49:17;;;;;;;1.00;0.60;;;;;;;;;;5016565;28;20391;-81
2023/11/06 13:51:43;;;;;;;1.30;0.30;;;;;;;;;;5015052;28;20415;-81
2023/11/06 13:54:21;;;;;;;1.17;0.40;;;;;;;;;;5016530;28;20392;-81
2023/11/06 13:56:52;;;;;;;0.85;0.40;;;;;;;;;;5015720;28;20894;-81
2023/11/06 13:59:23;;;;;;;1.20;0.50;;;;;;;;;;5015983;28;20447;-81
2023/11/06 14:01:49;;;;;;;0.70;0.40;;;;;;;;;;5029767;28;20383;-80
2023/11/06 14:04:16;;;;;;;1.65;0.30;;;;;;;;;;5035851;28;20981;-80
2023/11/06 14:06:42;;;;;;;0.90;0.50;;;;;;;;;;5035529;28;20732;-81
2023/11/06 14:12:11;;;;;;;1.30;0.50;;;;;;;;;;4993928;28;20414;-81
2023/11/06 14:14:38;;;;;;;1.05;0.52;;;;;;;;;;5026750;28;20415;-81
2023/11/06 14:17:04;;;;;;;0.53;0.40;;;;;;;;;;5035295;28;20398;-81
2023/11/06 14:19:30;;;;;;;0.65;0.40;;;;;;;;;;5035679;28;20391;-81
2023/11/06 14:21:56;;;;;;;1.00;0.50;;;;;;;;;;5034768;28;20387;-81
2023/11/06 14:24:22;;;;;;;0.75;0.50;;;;;;;;;;5035032;28;20390;-81
2023/11/06 14:26:51;;;;;;;0.60;0.30;;;;;;;;;;5035720;28;20736;-81
2023/11/06 14:29:18;;;;;;;0.57;0.35;;;;;;;;;;5035141;28;20387;-81
2023/11/06 14:31:50;;;;;;;2.17;0.57;;;;;;;;;;5034868;28;20757;-81
2023/11/06 14:34:16;;;;;;;1.35;0.40;;;;;;;;;;5035357;28;20841;-81
2023/11/06 14:36:44;;;;;;;0.47;0.30;;;;;;;;;;5036140;28;20433;-81
2023/11/06 14:39:14;;;;;;;0.50;0.40;;;;;;;;;;5035814;28;20391;-80
2023/11/06 14:41:39;;;;;;;1.15;0.65;;;;;;;;;;5036044;28;20375;-81
2023/11/06 14:44:10;;;;;;;1.60;1.00;;;;;;;;;;5036334;28;20434;-81
2023/11/06 14:46:36;;;;;;;2.63;1.53;;;;;;;;;;5037855;28;20549;-81